sensor_id;sensor_type;location;lat;lon;timestamp;P1;durP1;ratioP1;P2;durP2;ratioP2
35644;SDS011;21764;52.042;6.830;2023-07-31T00:00:43;3.88;;;2.78;;
35644;SDS011;21764;52.042;6.830;2023-07-31T00:05:44;6.55;;;3.08;;
35644;SDS011;21764;52.042;6.830;2023-07-31T00:10:45;3.88;;;2.67;;
35644;SDS011;21764;52.042;6.830;2023-07-31T00:15:45;5.07;;;3.05;;
35644;SDS011;21764;52.042;6.830;2023-07-31T00:20:46;7.13;;;2.90;;
35644;SDS011;21764;52.042;6.830;2023-07-31T00:25:47;4.63;;;2.55;;
35644;SDS011;21764;52.042;6.830;2023-07-31T00:30:47;4.53;;;2.85;;
35644;SDS011;21764;52.042;6.830;2023-07-31T00:35:48;6.38;;;2.80;;
35644;SDS011;21764;52.042;6.830;2023-07-31T00:40:49;6.90;;;2.60;;
35644;SDS011;21764;52.042;6.830;2023-07-31T00:45:49;3.00;;;2.03;;
35644;SDS011;21764;52.042;6.830;2023-07-31T00:50:50;3.13;;;2.10;;
35644;SDS011;21764;52.042;6.830;2023-07-31T00:55:51;8.73;;;2.13;;
35644;SDS011;21764;52.042;6.830;2023-07-31T01:00:52;2.55;;;1.95;;
35644;SDS011;21764;52.042;6.830;2023-07-31T01:11:16;2.60;;;1.65;;
35644;SDS011;21764;52.042;6.830;2023-07-31T01:16:21;2.00;;;1.50;;
35644;SDS011;21764;52.042;6.830;2023-07-31T01:21:28;1.33;;;1.20;;
35644;SDS011;21764;52.042;6.830;2023-07-31T01:26:41;2.03;;;1.40;;
35644;SDS011;21764;52.042;6.830;2023-07-31T01:31:47;2.92;;;1.27;;
35644;SDS011;21764;52.042;6.830;2023-07-31T01:36:50;4.30;;;1.30;;
35644;SDS011;21764;52.042;6.830;2023-07-31T01:41:51;1.20;;;1.10;;
35644;SDS011;21764;52.042;6.830;2023-07-31T01:46:51;2.63;;;2.10;;
35644;SDS011;21764;52.042;6.830;2023-07-31T01:51:52;11.32;;;5.05;;
35644;SDS011;21764;52.042;6.830;2023-07-31T01:56:52;18.77;;;8.43;;
35644;SDS011;21764;52.042;6.830;2023-07-31T02:01:53;28.40;;;11.40;;
35644;SDS011;21764;52.042;6.830;2023-07-31T02:06:54;41.95;;;13.90;;
35644;SDS011;21764;52.042;6.830;2023-07-31T02:11:54;37.97;;;16.27;;
35644;SDS011;21764;52.042;6.830;2023-07-31T02:16:55;50.25;;;18.33;;
35644;SDS011;21764;52.042;6.830;2023-07-31T02:21:56;49.67;;;20.10;;
35644;SDS011;21764;52.042;6.830;2023-07-31T02:26:57;53.03;;;19.65;;
35644;SDS011;21764;52.042;6.830;2023-07-31T02:31:58;53.17;;;19.95;;
35644;SDS011;21764;52.042;6.830;2023-07-31T02:36:58;50.58;;;19.13;;
35644;SDS011;21764;52.042;6.830;2023-07-31T02:41:59;49.72;;;18.52;;
35644;SDS011;21764;52.042;6.830;2023-07-31T02:47:00;48.20;;;17.50;;
35644;SDS011;21764;52.042;6.830;2023-07-31T02:52:01;59.83;;;18.20;;
35644;SDS011;21764;52.042;6.830;2023-07-31T02:57:01;47.65;;;15.88;;
35644;SDS011;21764;52.042;6.830;2023-07-31T03:02:02;45.58;;;15.05;;
35644;SDS011;21764;52.042;6.830;2023-07-31T03:07:04;42.22;;;14.25;;
35644;SDS011;21764;52.042;6.830;2023-07-31T03:12:05;37.75;;;13.63;;
35644;SDS011;21764;52.042;6.830;2023-07-31T03:17:06;37.25;;;13.48;;
35644;SDS011;21764;52.042;6.830;2023-07-31T03:22:07;37.45;;;13.02;;
35644;SDS011;21764;52.042;6.830;2023-07-31T03:27:08;41.25;;;12.80;;
35644;SDS011;21764;52.042;6.830;2023-07-31T03:32:08;37.00;;;12.60;;
35644;SDS011;21764;52.042;6.830;2023-07-31T03:37:09;31.73;;;10.82;;
35644;SDS011;21764;52.042;6.830;2023-07-31T03:42:09;36.22;;;12.07;;
35644;SDS011;21764;52.042;6.830;2023-07-31T03:47:10;38.10;;;11.75;;
35644;SDS011;21764;52.042;6.830;2023-07-31T03:52:11;35.47;;;11.52;;
35644;SDS011;21764;52.042;6.830;2023-07-31T03:57:11;33.30;;;10.45;;
35644;SDS011;21764;52.042;6.830;2023-07-31T04:02:12;29.85;;;10.82;;
35644;SDS011;21764;52.042;6.830;2023-07-31T04:07:14;34.70;;;11.90;;
35644;SDS011;21764;52.042;6.830;2023-07-31T04:12:14;30.27;;;11.02;;
35644;SDS011;21764;52.042;6.830;2023-07-31T04:17:15;33.85;;;10.70;;
35644;SDS011;21764;52.042;6.830;2023-07-31T04:22:17;26.23;;;9.88;;
35644;SDS011;21764;52.042;6.830;2023-07-31T04:27:18;32.92;;;9.85;;
35644;SDS011;21764;52.042;6.830;2023-07-31T04:32:18;34.60;;;9.65;;
35644;SDS011;21764;52.042;6.830;2023-07-31T04:37:20;36.17;;;9.35;;
35644;SDS011;21764;52.042;6.830;2023-07-31T04:42:21;35.67;;;9.85;;
35644;SDS011;21764;52.042;6.830;2023-07-31T04:47:22;34.40;;;8.98;;
35644;SDS011;21764;52.042;6.830;2023-07-31T04:52:22;30.70;;;9.65;;
35644;SDS011;21764;52.042;6.830;2023-07-31T04:57:23;41.15;;;9.23;;
35644;SDS011;21764;52.042;6.830;2023-07-31T05:02:23;32.45;;;9.10;;
35644;SDS011;21764;52.042;6.830;2023-07-31T05:07:24;27.83;;;8.77;;
35644;SDS011;21764;52.042;6.830;2023-07-31T05:12:25;26.13;;;8.98;;
35644;SDS011;21764;52.042;6.830;2023-07-31T05:17:25;30.00;;;9.32;;
35644;SDS011;21764;52.042;6.830;2023-07-31T05:22:26;25.48;;;8.90;;
35644;SDS011;21764;52.042;6.830;2023-07-31T05:27:27;31.33;;;9.25;;
35644;SDS011;21764;52.042;6.830;2023-07-31T05:32:27;38.20;;;10.55;;
35644;SDS011;21764;52.042;6.830;2023-07-31T05:37:28;31.08;;;8.70;;
35644;SDS011;21764;52.042;6.830;2023-07-31T05:42:29;36.85;;;9.55;;
35644;SDS011;21764;52.042;6.830;2023-07-31T05:47:29;23.73;;;8.57;;
35644;SDS011;21764;52.042;6.830;2023-07-31T05:52:30;34.38;;;8.65;;
35644;SDS011;21764;52.042;6.830;2023-07-31T05:57:30;26.92;;;8.18;;
35644;SDS011;21764;52.042;6.830;2023-07-31T06:02:31;20.15;;;7.43;;
35644;SDS011;21764;52.042;6.830;2023-07-31T06:12:37;36.70;;;7.93;;
35644;SDS011;21764;52.042;6.830;2023-07-31T06:17:37;29.90;;;8.05;;
35644;SDS011;21764;52.042;6.830;2023-07-31T06:22:38;20.80;;;6.85;;
35644;SDS011;21764;52.042;6.830;2023-07-31T06:27:38;23.75;;;7.00;;
35644;SDS011;21764;52.042;6.830;2023-07-31T06:32:39;22.45;;;6.68;;
35644;SDS011;21764;52.042;6.830;2023-07-31T06:37:40;30.13;;;7.78;;
35644;SDS011;21764;52.042;6.830;2023-07-31T06:42:43;25.85;;;7.88;;
35644;SDS011;21764;52.042;6.830;2023-07-31T06:47:45;26.77;;;7.25;;
35644;SDS011;21764;52.042;6.830;2023-07-31T06:52:46;25.77;;;7.28;;
35644;SDS011;21764;52.042;6.830;2023-07-31T06:57:47;21.73;;;7.57;;
35644;SDS011;21764;52.042;6.830;2023-07-31T07:02:52;23.67;;;7.38;;
35644;SDS011;21764;52.042;6.830;2023-07-31T07:07:53;16.88;;;6.72;;
35644;SDS011;21764;52.042;6.830;2023-07-31T07:12:54;18.88;;;7.28;;
35644;SDS011;21764;52.042;6.830;2023-07-31T07:17:55;17.42;;;6.78;;
35644;SDS011;21764;52.042;6.830;2023-07-31T07:22:56;12.45;;;5.78;;
35644;SDS011;21764;52.042;6.830;2023-07-31T07:27:56;12.93;;;4.75;;
35644;SDS011;21764;52.042;6.830;2023-07-31T07:32:57;9.00;;;4.55;;
35644;SDS011;21764;52.042;6.830;2023-07-31T07:37:58;7.22;;;3.50;;
35644;SDS011;21764;52.042;6.830;2023-07-31T07:42:59;8.55;;;3.80;;
35644;SDS011;21764;52.042;6.830;2023-07-31T07:48:00;4.97;;;3.58;;
35644;SDS011;21764;52.042;6.830;2023-07-31T07:53:00;7.95;;;3.95;;
35644;SDS011;21764;52.042;6.830;2023-07-31T07:58:01;5.38;;;3.00;;
35644;SDS011;21764;52.042;6.830;2023-07-31T08:03:02;3.17;;;2.70;;
35644;SDS011;21764;52.042;6.830;2023-07-31T08:08:02;4.10;;;2.65;;
35644;SDS011;21764;52.042;6.830;2023-07-31T08:13:03;4.40;;;2.97;;
35644;SDS011;21764;52.042;6.830;2023-07-31T08:18:04;5.03;;;2.40;;
35644;SDS011;21764;52.042;6.830;2023-07-31T08:23:04;4.47;;;2.40;;
35644;SDS011;21764;52.042;6.830;2023-07-31T08:28:05;4.88;;;2.40;;
35644;SDS011;21764;52.042;6.830;2023-07-31T08:33:06;2.97;;;1.98;;
35644;SDS011;21764;52.042;6.830;2023-07-31T08:38:07;3.80;;;2.00;;
35644;SDS011;21764;52.042;6.830;2023-07-31T08:43:08;2.85;;;2.05;;
35644;SDS011;21764;52.042;6.830;2023-07-31T08:48:09;3.05;;;2.00;;
35644;SDS011;21764;52.042;6.830;2023-07-31T08:53:11;2.05;;;1.80;;
35644;SDS011;21764;52.042;6.830;2023-07-31T08:58:12;3.28;;;2.05;;
35644;SDS011;21764;52.042;6.830;2023-07-31T09:05:07;3.13;;;2.10;;
35644;SDS011;21764;52.042;6.830;2023-07-31T09:10:09;2.92;;;2.15;;
35644;SDS011;21764;52.042;6.830;2023-07-31T09:15:09;4.65;;;2.63;;
35644;SDS011;21764;52.042;6.830;2023-07-31T09:20:20;4.35;;;2.40;;
35644;SDS011;21764;52.042;6.830;2023-07-31T09:25:22;2.22;;;2.03;;
35644;SDS011;21764;52.042;6.830;2023-07-31T09:30:24;3.75;;;2.08;;
35644;SDS011;21764;52.042;6.830;2023-07-31T09:35:29;2.30;;;1.90;;
35644;SDS011;21764;52.042;6.830;2023-07-31T09:40:41;2.80;;;1.80;;
35644;SDS011;21764;52.042;6.830;2023-07-31T09:45:43;2.25;;;1.90;;
35644;SDS011;21764;52.042;6.830;2023-07-31T09:50:45;3.25;;;1.90;;
35644;SDS011;21764;52.042;6.830;2023-07-31T09:55:47;5.25;;;2.30;;
35644;SDS011;21764;52.042;6.830;2023-07-31T10:00:48;2.20;;;1.95;;
35644;SDS011;21764;52.042;6.830;2023-07-31T10:05:50;6.13;;;3.08;;
35644;SDS011;21764;52.042;6.830;2023-07-31T10:10:54;7.70;;;3.00;;
35644;SDS011;21764;52.042;6.830;2023-07-31T10:15:59;6.00;;;3.00;;
35644;SDS011;21764;52.042;6.830;2023-07-31T10:21:03;3.58;;;2.75;;
35644;SDS011;21764;52.042;6.830;2023-07-31T10:26:04;4.45;;;2.70;;
35644;SDS011;21764;52.042;6.830;2023-07-31T10:31:07;3.78;;;2.80;;
35644;SDS011;21764;52.042;6.830;2023-07-31T10:36:18;5.63;;;3.28;;
35644;SDS011;21764;52.042;6.830;2023-07-31T10:41:20;4.13;;;3.30;;
35644;SDS011;21764;52.042;6.830;2023-07-31T10:46:32;7.35;;;3.25;;
35644;SDS011;21764;52.042;6.830;2023-07-31T10:51:33;3.95;;;3.00;;
35644;SDS011;21764;52.042;6.830;2023-07-31T10:56:37;5.18;;;3.65;;
35644;SDS011;21764;52.042;6.830;2023-07-31T11:01:55;5.93;;;3.75;;
35644;SDS011;21764;52.042;6.830;2023-07-31T11:06:58;8.93;;;5.13;;
35644;SDS011;21764;52.042;6.830;2023-07-31T11:11:59;9.13;;;5.03;;
35644;SDS011;21764;52.042;6.830;2023-07-31T11:17:05;10.98;;;5.75;;
35644;SDS011;21764;52.042;6.830;2023-07-31T11:22:06;9.30;;;6.00;;
35644;SDS011;21764;52.042;6.830;2023-07-31T11:27:07;9.25;;;5.63;;
35644;SDS011;21764;52.042;6.830;2023-07-31T11:32:15;8.73;;;5.40;;
35644;SDS011;21764;52.042;6.830;2023-07-31T11:37:17;12.20;;;6.30;;
35644;SDS011;21764;52.042;6.830;2023-07-31T11:42:18;9.43;;;5.88;;
35644;SDS011;21764;52.042;6.830;2023-07-31T11:47:18;8.68;;;5.30;;
35644;SDS011;21764;52.042;6.830;2023-07-31T11:52:20;8.63;;;5.40;;
35644;SDS011;21764;52.042;6.830;2023-07-31T11:57:20;9.65;;;5.82;;
35644;SDS011;21764;52.042;6.830;2023-07-31T12:02:22;9.55;;;5.68;;
35644;SDS011;21764;52.042;6.830;2023-07-31T12:07:23;11.05;;;5.40;;
35644;SDS011;21764;52.042;6.830;2023-07-31T12:12:25;9.80;;;5.75;;
35644;SDS011;21764;52.042;6.830;2023-07-31T12:17:26;14.30;;;6.20;;
35644;SDS011;21764;52.042;6.830;2023-07-31T12:22:27;11.50;;;6.10;;
35644;SDS011;21764;52.042;6.830;2023-07-31T12:27:32;13.07;;;6.28;;
35644;SDS011;21764;52.042;6.830;2023-07-31T12:32:33;11.65;;;6.10;;
35644;SDS011;21764;52.042;6.830;2023-07-31T12:37:33;8.85;;;5.45;;
35644;SDS011;21764;52.042;6.830;2023-07-31T12:42:34;13.25;;;6.13;;
35644;SDS011;21764;52.042;6.830;2023-07-31T12:47:35;6.95;;;5.13;;
35644;SDS011;21764;52.042;6.830;2023-07-31T12:52:38;11.05;;;5.65;;
35644;SDS011;21764;52.042;6.830;2023-07-31T12:57:39;9.68;;;5.00;;
35644;SDS011;21764;52.042;6.830;2023-07-31T13:02:40;8.75;;;4.78;;
35644;SDS011;21764;52.042;6.830;2023-07-31T13:07:43;8.60;;;4.70;;
35644;SDS011;21764;52.042;6.830;2023-07-31T13:12:44;14.77;;;5.07;;
35644;SDS011;21764;52.042;6.830;2023-07-31T13:17:45;12.98;;;5.50;;
35644;SDS011;21764;52.042;6.830;2023-07-31T13:22:46;9.10;;;4.80;;
35644;SDS011;21764;52.042;6.830;2023-07-31T13:27:47;10.00;;;5.03;;
35644;SDS011;21764;52.042;6.830;2023-07-31T13:32:47;9.95;;;5.05;;
35644;SDS011;21764;52.042;6.830;2023-07-31T13:37:48;9.68;;;4.88;;
35644;SDS011;21764;52.042;6.830;2023-07-31T13:42:49;7.78;;;5.05;;
35644;SDS011;21764;52.042;6.830;2023-07-31T13:47:49;8.77;;;4.57;;
35644;SDS011;21764;52.042;6.830;2023-07-31T13:52:51;10.20;;;5.13;;
35644;SDS011;21764;52.042;6.830;2023-07-31T13:57:51;8.57;;;4.32;;
35644;SDS011;21764;52.042;6.830;2023-07-31T14:02:53;8.65;;;4.20;;
35644;SDS011;21764;52.042;6.830;2023-07-31T14:07:54;7.57;;;4.32;;
35644;SDS011;21764;52.042;6.830;2023-07-31T14:12:54;8.43;;;4.13;;
35644;SDS011;21764;52.042;6.830;2023-07-31T14:17:55;9.38;;;4.40;;
35644;SDS011;21764;52.042;6.830;2023-07-31T14:22:56;11.35;;;4.50;;
35644;SDS011;21764;52.042;6.830;2023-07-31T14:27:56;6.43;;;4.28;;
35644;SDS011;21764;52.042;6.830;2023-07-31T14:33:00;7.75;;;4.90;;
35644;SDS011;21764;52.042;6.830;2023-07-31T14:38:02;11.25;;;5.28;;
35644;SDS011;21764;52.042;6.830;2023-07-31T14:43:02;8.45;;;4.90;;
35644;SDS011;21764;52.042;6.830;2023-07-31T14:48:03;11.00;;;5.82;;
35644;SDS011;21764;52.042;6.830;2023-07-31T14:53:04;11.10;;;5.38;;
35644;SDS011;21764;52.042;6.830;2023-07-31T14:58:05;13.65;;;5.85;;
35644;SDS011;21764;52.042;6.830;2023-07-31T15:03:06;8.80;;;5.60;;
35644;SDS011;21764;52.042;6.830;2023-07-31T15:08:06;12.18;;;6.30;;
35644;SDS011;21764;52.042;6.830;2023-07-31T15:13:07;10.52;;;6.18;;
35644;SDS011;21764;52.042;6.830;2023-07-31T15:18:07;10.73;;;6.60;;
35644;SDS011;21764;52.042;6.830;2023-07-31T15:23:08;16.30;;;7.57;;
35644;SDS011;21764;52.042;6.830;2023-07-31T15:28:09;16.05;;;6.90;;
35644;SDS011;21764;52.042;6.830;2023-07-31T15:33:10;15.30;;;6.65;;
35644;SDS011;21764;52.042;6.830;2023-07-31T15:38:11;11.80;;;7.10;;
35644;SDS011;21764;52.042;6.830;2023-07-31T15:43:11;13.02;;;5.85;;
35644;SDS011;21764;52.042;6.830;2023-07-31T15:48:12;13.07;;;6.45;;
35644;SDS011;21764;52.042;6.830;2023-07-31T15:53:13;14.43;;;7.20;;
35644;SDS011;21764;52.042;6.830;2023-07-31T15:58:14;13.38;;;7.18;;
35644;SDS011;21764;52.042;6.830;2023-07-31T16:03:14;10.95;;;6.40;;
35644;SDS011;21764;52.042;6.830;2023-07-31T16:08:18;11.68;;;5.70;;
35644;SDS011;21764;52.042;6.830;2023-07-31T16:13:19;9.43;;;5.67;;
35644;SDS011;21764;52.042;6.830;2023-07-31T16:18:20;11.57;;;5.47;;
35644;SDS011;21764;52.042;6.830;2023-07-31T16:23:20;8.40;;;5.00;;
35644;SDS011;21764;52.042;6.830;2023-07-31T16:28:21;8.88;;;5.43;;
35644;SDS011;21764;52.042;6.830;2023-07-31T16:33:22;11.20;;;6.03;;
35644;SDS011;21764;52.042;6.830;2023-07-31T16:38:23;12.25;;;6.07;;
35644;SDS011;21764;52.042;6.830;2023-07-31T16:43:23;11.73;;;6.15;;
35644;SDS011;21764;52.042;6.830;2023-07-31T16:48:24;10.60;;;6.15;;
35644;SDS011;21764;52.042;6.830;2023-07-31T16:53:25;10.43;;;6.22;;
35644;SDS011;21764;52.042;6.830;2023-07-31T16:58:25;12.18;;;6.28;;
35644;SDS011;21764;52.042;6.830;2023-07-31T17:03:26;15.18;;;5.53;;
35644;SDS011;21764;52.042;6.830;2023-07-31T17:08:27;11.15;;;5.90;;
35644;SDS011;21764;52.042;6.830;2023-07-31T17:13:27;12.98;;;6.05;;
35644;SDS011;21764;52.042;6.830;2023-07-31T17:18:29;11.15;;;5.32;;
35644;SDS011;21764;52.042;6.830;2023-07-31T17:23:29;12.27;;;5.22;;
35644;SDS011;21764;52.042;6.830;2023-07-31T17:28:30;10.02;;;5.25;;
35644;SDS011;21764;52.042;6.830;2023-07-31T17:33:31;9.25;;;5.35;;
35644;SDS011;21764;52.042;6.830;2023-07-31T17:38:32;8.07;;;4.47;;
35644;SDS011;21764;52.042;6.830;2023-07-31T17:43:33;8.68;;;4.85;;
35644;SDS011;21764;52.042;6.830;2023-07-31T17:48:33;7.72;;;3.92;;
35644;SDS011;21764;52.042;6.830;2023-07-31T17:53:34;6.55;;;4.13;;
35644;SDS011;21764;52.042;6.830;2023-07-31T17:58:35;10.75;;;4.40;;
35644;SDS011;21764;52.042;6.830;2023-07-31T18:03:35;11.32;;;4.60;;
35644;SDS011;21764;52.042;6.830;2023-07-31T18:08:36;7.82;;;4.32;;
35644;SDS011;21764;52.042;6.830;2023-07-31T18:13:37;10.30;;;3.90;;
35644;SDS011;21764;52.042;6.830;2023-07-31T18:18:38;4.95;;;3.30;;
35644;SDS011;21764;52.042;6.830;2023-07-31T18:23:38;6.30;;;3.30;;
35644;SDS011;21764;52.042;6.830;2023-07-31T18:28:39;4.03;;;2.75;;
35644;SDS011;21764;52.042;6.830;2023-07-31T18:33:40;6.97;;;3.67;;
35644;SDS011;21764;52.042;6.830;2023-07-31T18:38:40;5.25;;;3.30;;
35644;SDS011;21764;52.042;6.830;2023-07-31T18:43:41;4.45;;;2.20;;
35644;SDS011;21764;52.042;6.830;2023-07-31T18:48:43;6.35;;;2.30;;
35644;SDS011;21764;52.042;6.830;2023-07-31T18:53:44;4.57;;;1.90;;
35644;SDS011;21764;52.042;6.830;2023-07-31T18:58:44;3.38;;;2.00;;
35644;SDS011;21764;52.042;6.830;2023-07-31T19:03:47;5.28;;;3.20;;
35644;SDS011;21764;52.042;6.830;2023-07-31T19:08:48;4.50;;;2.10;;
35644;SDS011;21764;52.042;6.830;2023-07-31T19:13:49;2.95;;;1.98;;
35644;SDS011;21764;52.042;6.830;2023-07-31T19:18:49;2.38;;;1.58;;
35644;SDS011;21764;52.042;6.830;2023-07-31T19:23:50;2.75;;;1.65;;
35644;SDS011;21764;52.042;6.830;2023-07-31T19:28:51;2.33;;;1.67;;
35644;SDS011;21764;52.042;6.830;2023-07-31T19:33:51;4.88;;;2.88;;
35644;SDS011;21764;52.042;6.830;2023-07-31T19:38:52;7.28;;;1.85;;
35644;SDS011;21764;52.042;6.830;2023-07-31T19:43:53;3.92;;;1.80;;
35644;SDS011;21764;52.042;6.830;2023-07-31T19:48:53;2.95;;;1.63;;
35644;SDS011;21764;52.042;6.830;2023-07-31T19:53:54;4.10;;;2.10;;
35644;SDS011;21764;52.042;6.830;2023-07-31T19:58:55;3.75;;;1.80;;
35644;SDS011;21764;52.042;6.830;2023-07-31T20:03:55;2.35;;;1.92;;
35644;SDS011;21764;52.042;6.830;2023-07-31T20:08:56;2.00;;;1.80;;
35644;SDS011;21764;52.042;6.830;2023-07-31T20:13:57;2.35;;;1.73;;
35644;SDS011;21764;52.042;6.830;2023-07-31T20:18:58;3.25;;;1.95;;
35644;SDS011;21764;52.042;6.830;2023-07-31T20:23:58;2.53;;;1.63;;
35644;SDS011;21764;52.042;6.830;2023-07-31T20:28:59;3.53;;;1.65;;
35644;SDS011;21764;52.042;6.830;2023-07-31T20:34:00;2.28;;;1.67;;
35644;SDS011;21764;52.042;6.830;2023-07-31T20:39:01;1.90;;;1.33;;
35644;SDS011;21764;52.042;6.830;2023-07-31T20:44:02;1.80;;;1.50;;
35644;SDS011;21764;52.042;6.830;2023-07-31T20:49:04;3.95;;;1.08;;
35644;SDS011;21764;52.042;6.830;2023-07-31T20:54:05;2.35;;;1.52;;
35644;SDS011;21764;52.042;6.830;2023-07-31T20:59:06;1.27;;;1.17;;
35644;SDS011;21764;52.042;6.830;2023-07-31T21:04:06;3.42;;;1.60;;
35644;SDS011;21764;52.042;6.830;2023-07-31T21:09:07;4.43;;;1.55;;
35644;SDS011;21764;52.042;6.830;2023-07-31T21:14:08;3.58;;;1.95;;
35644;SDS011;21764;52.042;6.830;2023-07-31T21:19:08;2.47;;;1.52;;
35644;SDS011;21764;52.042;6.830;2023-07-31T21:24:09;8.43;;;1.85;;
35644;SDS011;21764;52.042;6.830;2023-07-31T21:29:10;3.28;;;1.77;;
35644;SDS011;21764;52.042;6.830;2023-07-31T21:34:10;5.32;;;1.90;;
35644;SDS011;21764;52.042;6.830;2023-07-31T21:39:11;3.47;;;2.35;;
35644;SDS011;21764;52.042;6.830;2023-07-31T21:44:12;4.95;;;2.47;;
35644;SDS011;21764;52.042;6.830;2023-07-31T21:49:15;3.13;;;2.10;;
35644;SDS011;21764;52.042;6.830;2023-07-31T21:54:16;15.43;;;10.50;;
35644;SDS011;21764;52.042;6.830;2023-07-31T21:59:19;3.35;;;2.22;;
35644;SDS011;21764;52.042;6.830;2023-07-31T22:04:19;4.63;;;2.40;;
35644;SDS011;21764;52.042;6.830;2023-07-31T22:09:20;3.25;;;2.25;;
35644;SDS011;21764;52.042;6.830;2023-07-31T22:14:21;5.95;;;2.38;;
35644;SDS011;21764;52.042;6.830;2023-07-31T22:19:21;4.68;;;2.28;;
35644;SDS011;21764;52.042;6.830;2023-07-31T22:24:22;4.10;;;2.53;;
35644;SDS011;21764;52.042;6.830;2023-07-31T22:29:23;4.97;;;2.53;;
35644;SDS011;21764;52.042;6.830;2023-07-31T22:34:24;4.68;;;2.55;;
35644;SDS011;21764;52.042;6.830;2023-07-31T22:39:24;3.40;;;2.70;;
35644;SDS011;21764;52.042;6.830;2023-07-31T22:44:25;4.63;;;3.33;;
35644;SDS011;21764;52.042;6.830;2023-07-31T22:49:26;3.50;;;2.78;;
35644;SDS011;21764;52.042;6.830;2023-07-31T22:54:26;4.15;;;2.88;;
35644;SDS011;21764;52.042;6.830;2023-07-31T22:59:27;7.55;;;3.50;;
35644;SDS011;21764;52.042;6.830;2023-07-31T23:04:28;8.15;;;4.20;;
35644;SDS011;21764;52.042;6.830;2023-07-31T23:09:28;7.15;;;2.90;;
35644;SDS011;21764;52.042;6.830;2023-07-31T23:14:29;8.32;;;3.13;;
35644;SDS011;21764;52.042;6.830;2023-07-31T23:19:30;12.25;;;3.55;;
35644;SDS011;21764;52.042;6.830;2023-07-31T23:24:32;4.47;;;3.13;;
35644;SDS011;21764;52.042;6.830;2023-07-31T23:29:33;4.85;;;2.97;;
35644;SDS011;21764;52.042;6.830;2023-07-31T23:34:35;6.70;;;3.20;;
35644;SDS011;21764;52.042;6.830;2023-07-31T23:39:36;6.43;;;3.15;;
35644;SDS011;21764;52.042;6.830;2023-07-31T23:44:37;6.28;;;3.15;;
35644;SDS011;21764;52.042;6.830;2023-07-31T23:49:37;6.80;;;3.33;;
35644;SDS011;21764;52.042;6.830;2023-07-31T23:54:38;5.32;;;3.47;;
35644;SDS011;21764;52.042;6.830;2023-07-31T23:59:39;5.28;;;3.65;;
